RYR53AF EIDW-LFOB
Flight info
| Callsign | RYR53AF |
|---|---|
| Flight time | 1h 15m |
| Altitude | 33000 |
| Route | ENDEQ1E ENDEQ Q36 EPOXI L15 KEPAD L151 MID Y803 SFD/N0356F230 M605 XIDIL/N0336F190 M605 PETAX J150 VELOL |
| Aircraft | B38M/M-SDE1FGHILORVWXY/HB1 |
Departure
| Time | 2026-04-21 16:13 |
|---|---|
| Airport | Dublin Airport (EIDW) |
Arrival
| Time | 2026-04-21 17:28 |
|---|---|
| Airport | Beauvais-Tillé airport (LFOB) |
| Time | Latitude | Longitude | Altitude | Speed | Heading |
|---|---|---|---|---|---|
| 2026-04-21 15:40 | 53.43010 | -6.25009 | 213 ft | 0 kts | 5° |
| 2026-04-21 15:59 | 53.42999 | -6.25011 | 221 ft | 4 kts | 6° |
| 2026-04-21 15:59 | 53.42964 | -6.25013 | 213 ft | 4 kts | 344° |
| 2026-04-21 15:59 | 53.42953 | -6.25000 | 218 ft | 1 kts | 275° |
| 2026-04-21 15:59 | 53.42953 | -6.24999 | 218 ft | 2 kts | 275° |
| 2026-04-21 16:03 | 53.42953 | -6.25003 | 213 ft | 2 kts | 275° |
| 2026-04-21 16:04 | 53.42958 | -6.25091 | 217 ft | 14 kts | 275° |
| 2026-04-21 16:04 | 53.42953 | -6.25260 | 220 ft | 14 kts | 248° |
| 2026-04-21 16:04 | 53.42873 | -6.25296 | 216 ft | 15 kts | 156° |
| 2026-04-21 16:04 | 53.42768 | -6.25222 | 213 ft | 17 kts | 157° |
| 2026-04-21 16:05 | 53.42689 | -6.25099 | 213 ft | 16 kts | 149° |
| 2026-04-21 16:05 | 53.42582 | -6.25022 | 213 ft | 18 kts | 156° |
| 2026-04-21 16:05 | 53.42463 | -6.24935 | 216 ft | 20 kts | 157° |
| 2026-04-21 16:05 | 53.42350 | -6.24853 | 213 ft | 15 kts | 156° |
| 2026-04-21 16:06 | 53.42249 | -6.24777 | 221 ft | 17 kts | 155° |
| 2026-04-21 16:06 | 53.42156 | -6.24772 | 213 ft | 13 kts | 210° |
| 2026-04-21 16:06 | 53.42089 | -6.24863 | 217 ft | 6 kts | 236° |
| 2026-04-21 16:06 | 53.42060 | -6.24934 | 217 ft | 9 kts | 239° |
| 2026-04-21 16:07 | 53.42077 | -6.25019 | 221 ft | 10 kts | 321° |
| 2026-04-21 16:07 | 53.42180 | -6.25122 | 216 ft | 23 kts | 304° |
| 2026-04-21 16:07 | 53.42213 | -6.25358 | 219 ft | 21 kts | 276° |
| 2026-04-21 16:07 | 53.42225 | -6.25575 | 218 ft | 17 kts | 276° |
| 2026-04-21 16:08 | 53.42250 | -6.26006 | 219 ft | 19 kts | 275° |
| 2026-04-21 16:08 | 53.42263 | -6.26235 | 213 ft | 21 kts | 275° |
| 2026-04-21 16:08 | 53.42277 | -6.26490 | 218 ft | 23 kts | 276° |
| 2026-04-21 16:09 | 53.42292 | -6.26757 | 213 ft | 22 kts | 276° |
| 2026-04-21 16:09 | 53.42305 | -6.27003 | 213 ft | 21 kts | 275° |
| 2026-04-21 16:09 | 53.42318 | -6.27255 | 213 ft | 23 kts | 276° |
| 2026-04-21 16:09 | 53.42328 | -6.27433 | 213 ft | 24 kts | 275° |
| 2026-04-21 16:10 | 53.42347 | -6.27766 | 216 ft | 22 kts | 275° |
| 2026-04-21 16:10 | 53.42362 | -6.28039 | 213 ft | 24 kts | 276° |
| 2026-04-21 16:10 | 53.42362 | -6.28296 | 219 ft | 17 kts | 228° |
| 2026-04-21 16:10 | 53.42321 | -6.28324 | 213 ft | 1 kts | 181° |
| 2026-04-21 16:11 | 53.42316 | -6.28323 | 214 ft | 0 kts | 176° |
| 2026-04-21 16:11 | 53.42301 | -6.28318 | 214 ft | 6 kts | 162° |
| 2026-04-21 16:11 | 53.42245 | -6.28235 | 215 ft | 14 kts | 129° |
| 2026-04-21 16:12 | 53.42209 | -6.28135 | 221 ft | 16 kts | 116° |
| 2026-04-21 16:12 | 53.42188 | -6.28023 | 214 ft | 1 kts | 95° |
| 2026-04-21 16:12 | 53.42188 | -6.28011 | 214 ft | 4 kts | 95° |
| 2026-04-21 16:12 | 53.42150 | -6.27304 | 213 ft | 93 kts | 95° |
| 2026-04-21 16:13 | 53.42071 | -6.25868 | 226 ft | 151 kts | 95° |
| 2026-04-21 16:13 | 53.41932 | -6.24065 | 909 ft | 159 kts | 94° |
| 2026-04-21 16:13 | 53.41831 | -6.22843 | 1490 ft | 160 kts | 95° |
| 2026-04-21 16:13 | 53.41687 | -6.20293 | 2373 ft | 174 kts | 93° |
| 2026-04-21 16:14 | 53.41630 | -6.18919 | 2798 ft | 181 kts | 93° |
| 2026-04-21 16:14 | 53.41542 | -6.16741 | 3448 ft | 196 kts | 94° |
| 2026-04-21 16:14 | 53.41417 | -6.14351 | 4001 ft | 215 kts | 95° |
| 2026-04-21 16:14 | 53.41279 | -6.11738 | 4570 ft | 235 kts | 95° |
| 2026-04-21 16:15 | 53.41128 | -6.08939 | 5363 ft | 242 kts | 96° |
| 2026-04-21 16:15 | 53.40929 | -6.05198 | 6754 ft | 246 kts | 94° |
| 2026-04-21 16:15 | 53.40931 | -6.03241 | 7427 ft | 252 kts | 87° |
| 2026-04-21 16:15 | 53.41134 | -6.00252 | 8262 ft | 263 kts | 84° |
| 2026-04-21 16:16 | 53.41352 | -5.97236 | 8955 ft | 266 kts | 84° |
| 2026-04-21 16:16 | 53.41571 | -5.94158 | 9112 ft | 266 kts | 84° |
| 2026-04-21 16:16 | 53.41791 | -5.91078 | 9284 ft | 267 kts | 84° |
| 2026-04-21 16:16 | 53.42010 | -5.87992 | 9327 ft | 267 kts | 84° |
| 2026-04-21 16:17 | 53.42228 | -5.84901 | 9349 ft | 267 kts | 84° |
| 2026-04-21 16:17 | 53.42445 | -5.81810 | 9341 ft | 267 kts | 84° |
| 2026-04-21 16:17 | 53.42658 | -5.78683 | 9638 ft | 272 kts | 85° |
| 2026-04-21 16:17 | 53.42870 | -5.75546 | 10562 ft | 271 kts | 85° |
| 2026-04-21 16:18 | 53.43087 | -5.72313 | 11012 ft | 288 kts | 85° |
| 2026-04-21 16:18 | 53.43315 | -5.68922 | 11436 ft | 304 kts | 84° |
| 2026-04-21 16:18 | 53.43554 | -5.65339 | 12087 ft | 312 kts | 84° |
| 2026-04-21 16:18 | 53.43796 | -5.61704 | 12894 ft | 317 kts | 84° |
| 2026-04-21 16:19 | 53.44041 | -5.58000 | 13686 ft | 322 kts | 84° |
| 2026-04-21 16:19 | 53.44289 | -5.54243 | 14424 ft | 328 kts | 84° |
| 2026-04-21 16:19 | 53.44533 | -5.50405 | 15137 ft | 333 kts | 86° |
| 2026-04-21 16:19 | 53.44460 | -5.46487 | 15840 ft | 339 kts | 93° |
| 2026-04-21 16:20 | 53.44335 | -5.42506 | 16553 ft | 345 kts | 92° |
| 2026-04-21 16:20 | 53.44228 | -5.38456 | 17264 ft | 351 kts | 92° |
| 2026-04-21 16:20 | 53.44130 | -5.34337 | 17951 ft | 356 kts | 91° |
| 2026-04-21 16:20 | 53.44038 | -5.30210 | 18624 ft | 362 kts | 91° |
| 2026-04-21 16:21 | 53.43945 | -5.25956 | 19179 ft | 368 kts | 91° |
| 2026-04-21 16:21 | 53.43850 | -5.21631 | 19695 ft | 374 kts | 91° |
| 2026-04-21 16:21 | 53.43748 | -5.17247 | 20310 ft | 379 kts | 92° |
| 2026-04-21 16:21 | 53.43610 | -5.12812 | 20867 ft | 384 kts | 92° |
| 2026-04-21 16:22 | 53.43470 | -5.08315 | 21404 ft | 389 kts | 92° |
| 2026-04-21 16:22 | 53.43327 | -5.03768 | 21932 ft | 394 kts | 91° |
| 2026-04-21 16:22 | 53.43183 | -4.99203 | 22456 ft | 400 kts | 91° |
| 2026-04-21 16:22 | 53.43034 | -4.94525 | 22981 ft | 405 kts | 91° |
| 2026-04-21 16:23 | 53.42881 | -4.89788 | 23508 ft | 409 kts | 91° |
| 2026-04-21 16:23 | 53.42724 | -4.84983 | 24000 ft | 414 kts | 91° |
| 2026-04-21 16:23 | 53.42564 | -4.80145 | 24435 ft | 418 kts | 91° |
| 2026-04-21 16:23 | 53.42400 | -4.75257 | 24898 ft | 421 kts | 91° |
| 2026-04-21 16:24 | 53.42234 | -4.70336 | 25336 ft | 425 kts | 91° |
| 2026-04-21 16:24 | 53.42064 | -4.65367 | 25766 ft | 428 kts | 91° |
| 2026-04-21 16:24 | 53.41891 | -4.60370 | 26202 ft | 432 kts | 91° |
| 2026-04-21 16:24 | 53.41713 | -4.55324 | 26632 ft | 435 kts | 91° |
| 2026-04-21 16:25 | 53.41536 | -4.50320 | 27035 ft | 438 kts | 91° |
| 2026-04-21 16:25 | 53.41351 | -4.45193 | 27447 ft | 442 kts | 91° |
| 2026-04-21 16:25 | 53.41164 | -4.40028 | 27842 ft | 446 kts | 91° |
| 2026-04-21 16:25 | 53.40972 | -4.34835 | 28242 ft | 449 kts | 91° |
| 2026-04-21 16:26 | 53.40777 | -4.29588 | 28634 ft | 452 kts | 91° |
| 2026-04-21 16:26 | 53.40578 | -4.24308 | 29006 ft | 456 kts | 91° |
| 2026-04-21 16:26 | 53.40375 | -4.18987 | 29386 ft | 459 kts | 91° |
| 2026-04-21 16:26 | 53.40168 | -4.13619 | 29749 ft | 463 kts | 91° |
| 2026-04-21 16:27 | 53.39961 | -4.08299 | 30100 ft | 466 kts | 91° |
| 2026-04-21 16:27 | 53.39746 | -4.02858 | 30438 ft | 469 kts | 91° |
| 2026-04-21 16:27 | 53.39528 | -3.97387 | 30743 ft | 472 kts | 91° |
| 2026-04-21 16:27 | 53.39304 | -3.91895 | 31099 ft | 473 kts | 92° |
| 2026-04-21 16:28 | 53.39079 | -3.86382 | 31444 ft | 475 kts | 92° |
| 2026-04-21 16:28 | 53.38851 | -3.80864 | 31768 ft | 476 kts | 92° |
| 2026-04-21 16:28 | 53.38620 | -3.75324 | 32148 ft | 476 kts | 92° |
| 2026-04-21 16:28 | 53.38386 | -3.69803 | 32615 ft | 474 kts | 92° |
| 2026-04-21 16:29 | 53.37931 | -3.64345 | 33028 ft | 475 kts | 105° |
| 2026-04-21 16:29 | 53.36748 | -3.59191 | 33285 ft | 474 kts | 114° |
| 2026-04-21 16:29 | 53.35486 | -3.54164 | 33353 ft | 474 kts | 112° |
| 2026-04-21 16:30 | 53.32578 | -3.44352 | 33312 ft | 469 kts | 130° |
| 2026-04-21 16:30 | 53.28308 | -3.36094 | 33332 ft | 471 kts | 132° |
| 2026-04-21 16:31 | 53.23995 | -3.27858 | 33350 ft | 471 kts | 133° |
| 2026-04-21 16:31 | 53.19662 | -3.19677 | 33352 ft | 471 kts | 133° |
| 2026-04-21 16:32 | 53.15342 | -3.11555 | 33355 ft | 471 kts | 133° |
| 2026-04-21 16:32 | 53.10986 | -3.03394 | 33346 ft | 472 kts | 133° |
| 2026-04-21 16:33 | 53.06618 | -2.95236 | 33340 ft | 472 kts | 133° |
| 2026-04-21 16:33 | 53.02243 | -2.87092 | 33342 ft | 473 kts | 133° |
| 2026-04-21 16:34 | 52.97855 | -2.78951 | 33339 ft | 473 kts | 133° |
| 2026-04-21 16:34 | 52.93487 | -2.70873 | 33356 ft | 474 kts | 133° |
| 2026-04-21 16:35 | 52.89083 | -2.62755 | 33345 ft | 474 kts | 133° |
| 2026-04-21 16:35 | 52.84666 | -2.54641 | 33348 ft | 474 kts | 134° |
| 2026-04-21 16:36 | 52.80073 | -2.46928 | 33330 ft | 469 kts | 148° |
| 2026-04-21 16:36 | 52.74652 | -2.40933 | 33344 ft | 470 kts | 149° |
| 2026-04-21 16:37 | 52.69223 | -2.34917 | 33336 ft | 470 kts | 149° |
| 2026-04-21 16:37 | 52.63834 | -2.28995 | 33345 ft | 471 kts | 149° |
| 2026-04-21 16:38 | 52.58380 | -2.23021 | 33335 ft | 471 kts | 149° |
| 2026-04-21 16:38 | 52.52912 | -2.17051 | 33343 ft | 472 kts | 150° |
| 2026-04-21 16:39 | 52.47439 | -2.11092 | 33331 ft | 473 kts | 150° |
| 2026-04-21 16:39 | 52.41989 | -2.05176 | 33345 ft | 473 kts | 150° |
| 2026-04-21 16:40 | 52.36492 | -1.99228 | 33335 ft | 474 kts | 150° |
| 2026-04-21 16:40 | 52.30986 | -1.93289 | 33341 ft | 474 kts | 150° |
| 2026-04-21 16:41 | 52.25473 | -1.87360 | 33333 ft | 475 kts | 150° |
| 2026-04-21 16:41 | 52.19948 | -1.81436 | 33325 ft | 475 kts | 150° |
| 2026-04-21 16:42 | 52.14459 | -1.75569 | 33343 ft | 476 kts | 150° |
| 2026-04-21 16:42 | 52.08920 | -1.69664 | 33337 ft | 476 kts | 150° |
| 2026-04-21 16:43 | 52.03376 | -1.63760 | 33332 ft | 476 kts | 150° |
| 2026-04-21 16:43 | 51.97824 | -1.57884 | 33304 ft | 476 kts | 150° |
| 2026-04-21 16:44 | 51.92269 | -1.52021 | 33287 ft | 476 kts | 151° |
| 2026-04-21 16:44 | 51.86749 | -1.46211 | 33299 ft | 477 kts | 151° |
| 2026-04-21 16:45 | 51.81187 | -1.40373 | 33287 ft | 477 kts | 151° |
| 2026-04-21 16:45 | 51.75619 | -1.34545 | 33297 ft | 477 kts | 151° |
| 2026-04-21 16:46 | 51.70045 | -1.28728 | 33285 ft | 477 kts | 151° |
| 2026-04-21 16:46 | 51.64501 | -1.22960 | 33272 ft | 477 kts | 151° |
| 2026-04-21 16:47 | 51.58920 | -1.17170 | 33262 ft | 478 kts | 151° |
| 2026-04-21 16:47 | 51.53368 | -1.11427 | 33274 ft | 478 kts | 151° |
| 2026-04-21 16:48 | 51.47773 | -1.05656 | 33262 ft | 478 kts | 151° |
| 2026-04-21 16:48 | 51.42170 | -0.99896 | 33264 ft | 478 kts | 152° |
| 2026-04-21 16:49 | 51.36565 | -0.94150 | 33267 ft | 478 kts | 152° |
| 2026-04-21 16:49 | 51.30957 | -0.88417 | 33271 ft | 479 kts | 152° |
| 2026-04-21 16:50 | 51.25379 | -0.82732 | 33262 ft | 479 kts | 152° |
| 2026-04-21 16:50 | 51.19760 | -0.77022 | 33269 ft | 479 kts | 152° |
| 2026-04-21 16:51 | 51.14130 | -0.71317 | 33266 ft | 479 kts | 152° |
| 2026-04-21 16:51 | 51.08512 | -0.65639 | 33263 ft | 480 kts | 151° |
| 2026-04-21 16:51 | 51.06206 | -0.62897 | 33240 ft | 484 kts | 138° |
| 2026-04-21 16:52 | 51.04067 | -0.58759 | 33262 ft | 487 kts | 123° |
| 2026-04-21 16:52 | 51.00437 | -0.49651 | 33258 ft | 490 kts | 123° |
| 2026-04-21 16:53 | 50.96870 | -0.40560 | 33267 ft | 490 kts | 122° |
| 2026-04-21 16:53 | 50.93288 | -0.31400 | 33274 ft | 490 kts | 122° |
| 2026-04-21 16:54 | 50.89692 | -0.22238 | 33272 ft | 488 kts | 122° |
| 2026-04-21 16:54 | 50.87929 | -0.17755 | 33216 ft | 473 kts | 123° |
| 2026-04-21 16:54 | 50.86204 | -0.13380 | 32910 ft | 466 kts | 123° |
| 2026-04-21 16:54 | 50.84487 | -0.09030 | 32372 ft | 465 kts | 123° |
| 2026-04-21 16:55 | 50.82797 | -0.04756 | 31867 ft | 464 kts | 123° |
| 2026-04-21 16:55 | 50.81086 | -0.00435 | 31423 ft | 462 kts | 123° |
| 2026-04-21 16:55 | 50.79384 | 0.03854 | 30995 ft | 460 kts | 123° |
| 2026-04-21 16:55 | 50.77686 | 0.08131 | 30543 ft | 458 kts | 124° |
| 2026-04-21 16:56 | 50.75847 | 0.12214 | 29973 ft | 454 kts | 137° |
| 2026-04-21 16:56 | 50.73491 | 0.15413 | 29490 ft | 445 kts | 147° |
| 2026-04-21 16:56 | 50.71108 | 0.18495 | 29164 ft | 440 kts | 145° |
| 2026-04-21 16:56 | 50.68759 | 0.21547 | 28741 ft | 437 kts | 146° |
| 2026-04-21 16:57 | 50.66415 | 0.24560 | 28323 ft | 433 kts | 146° |
| 2026-04-21 16:57 | 50.64113 | 0.27504 | 27932 ft | 430 kts | 146° |
| 2026-04-21 16:57 | 50.61798 | 0.30459 | 27537 ft | 427 kts | 146° |
| 2026-04-21 16:57 | 50.59503 | 0.33382 | 27147 ft | 424 kts | 146° |
| 2026-04-21 16:58 | 50.57210 | 0.36301 | 26706 ft | 423 kts | 146° |
| 2026-04-21 16:58 | 50.54928 | 0.39200 | 26324 ft | 421 kts | 146° |
| 2026-04-21 16:58 | 50.52658 | 0.42080 | 25957 ft | 418 kts | 146° |
| 2026-04-21 16:58 | 50.50401 | 0.44941 | 25580 ft | 416 kts | 146° |
| 2026-04-21 16:59 | 50.48164 | 0.47773 | 25211 ft | 414 kts | 146° |
| 2026-04-21 16:59 | 50.45923 | 0.50606 | 24781 ft | 413 kts | 145° |
| 2026-04-21 16:59 | 50.43717 | 0.53391 | 24417 ft | 411 kts | 146° |
| 2026-04-21 16:59 | 50.41494 | 0.56195 | 24060 ft | 409 kts | 146° |
| 2026-04-21 17:00 | 50.39281 | 0.58982 | 23679 ft | 407 kts | 145° |
| 2026-04-21 17:00 | 50.37087 | 0.61743 | 23264 ft | 405 kts | 145° |
| 2026-04-21 17:00 | 50.35636 | 0.63567 | 23012 ft | 403 kts | 145° |
| 2026-04-21 17:00 | 50.32710 | 0.67240 | 22399 ft | 402 kts | 145° |
| 2026-04-21 17:01 | 50.30537 | 0.69965 | 22006 ft | 399 kts | 144° |
| 2026-04-21 17:01 | 50.28382 | 0.72663 | 21610 ft | 397 kts | 144° |
| 2026-04-21 17:01 | 50.26232 | 0.75352 | 21214 ft | 395 kts | 144° |
| 2026-04-21 17:01 | 50.24090 | 0.78028 | 20810 ft | 394 kts | 144° |
| 2026-04-21 17:02 | 50.21983 | 0.80657 | 20416 ft | 392 kts | 144° |
| 2026-04-21 17:02 | 50.19853 | 0.83312 | 20015 ft | 391 kts | 144° |
| 2026-04-21 17:02 | 50.17834 | 0.86151 | 19532 ft | 393 kts | 131° |
| 2026-04-21 17:02 | 50.16065 | 0.89381 | 19165 ft | 391 kts | 131° |
| 2026-04-21 17:03 | 50.14292 | 0.92562 | 18780 ft | 389 kts | 131° |
| 2026-04-21 17:03 | 50.12516 | 0.95729 | 18374 ft | 388 kts | 131° |
| 2026-04-21 17:03 | 50.10738 | 0.98888 | 17921 ft | 387 kts | 131° |
| 2026-04-21 17:03 | 50.08969 | 1.02026 | 17512 ft | 384 kts | 131° |
| 2026-04-21 17:04 | 50.07213 | 1.05137 | 17116 ft | 382 kts | 131° |
| 2026-04-21 17:04 | 50.05489 | 1.08189 | 16725 ft | 379 kts | 131° |
| 2026-04-21 17:04 | 50.03752 | 1.11258 | 16324 ft | 377 kts | 131° |
| 2026-04-21 17:04 | 50.02024 | 1.14307 | 15934 ft | 374 kts | 131° |
| 2026-04-21 17:05 | 50.00309 | 1.17330 | 15544 ft | 372 kts | 131° |
| 2026-04-21 17:05 | 49.98603 | 1.20336 | 15161 ft | 370 kts | 131° |
| 2026-04-21 17:05 | 49.96906 | 1.23319 | 14779 ft | 368 kts | 131° |
| 2026-04-21 17:05 | 49.95214 | 1.26294 | 14392 ft | 366 kts | 131° |
| 2026-04-21 17:06 | 49.93431 | 1.29096 | 13903 ft | 366 kts | 144° |
| 2026-04-21 17:06 | 49.91264 | 1.31153 | 13408 ft | 365 kts | 150° |
| 2026-04-21 17:06 | 49.89123 | 1.33148 | 12961 ft | 363 kts | 150° |
| 2026-04-21 17:06 | 49.86974 | 1.35164 | 12495 ft | 363 kts | 149° |
| 2026-04-21 17:07 | 49.84818 | 1.37190 | 12022 ft | 362 kts | 149° |
| 2026-04-21 17:07 | 49.82669 | 1.39209 | 11530 ft | 361 kts | 149° |
| 2026-04-21 17:07 | 49.80519 | 1.41228 | 11064 ft | 361 kts | 149° |
| 2026-04-21 17:07 | 49.78377 | 1.43236 | 10590 ft | 360 kts | 149° |
| 2026-04-21 17:08 | 49.76244 | 1.45235 | 10113 ft | 360 kts | 149° |
| 2026-04-21 17:08 | 49.74105 | 1.47236 | 9592 ft | 359 kts | 148° |
| 2026-04-21 17:08 | 49.71972 | 1.49231 | 9092 ft | 357 kts | 148° |
| 2026-04-21 17:08 | 49.69885 | 1.51191 | 8595 ft | 356 kts | 148° |
| 2026-04-21 17:09 | 49.65682 | 1.55144 | 7636 ft | 350 kts | 147° |
| 2026-04-21 17:09 | 49.63623 | 1.57101 | 7185 ft | 346 kts | 143° |
| 2026-04-21 17:09 | 49.62015 | 1.59744 | 6742 ft | 331 kts | 116° |
| 2026-04-21 17:10 | 49.61406 | 1.63003 | 6428 ft | 307 kts | 93° |
| 2026-04-21 17:10 | 49.61232 | 1.66173 | 6141 ft | 289 kts | 94° |
| 2026-04-21 17:10 | 49.61033 | 1.69184 | 5824 ft | 275 kts | 94° |
| 2026-04-21 17:10 | 49.60842 | 1.72002 | 5525 ft | 263 kts | 94° |
| 2026-04-21 17:11 | 49.60657 | 1.74690 | 5274 ft | 252 kts | 94° |
| 2026-04-21 17:11 | 49.60175 | 1.77263 | 5168 ft | 247 kts | 117° |
| 2026-04-21 17:11 | 49.59235 | 1.79497 | 5106 ft | 249 kts | 120° |
| 2026-04-21 17:11 | 49.58290 | 1.81729 | 4984 ft | 248 kts | 120° |
| 2026-04-21 17:12 | 49.57316 | 1.83947 | 4609 ft | 252 kts | 121° |
| 2026-04-21 17:12 | 49.56328 | 1.86194 | 4226 ft | 254 kts | 120° |
| 2026-04-21 17:12 | 49.55378 | 1.88466 | 3985 ft | 248 kts | 118° |
| 2026-04-21 17:12 | 49.54474 | 1.90580 | 3912 ft | 229 kts | 121° |
| 2026-04-21 17:13 | 49.53607 | 1.92483 | 3934 ft | 206 kts | 120° |
| 2026-04-21 17:13 | 49.52842 | 1.94219 | 3900 ft | 186 kts | 119° |
| 2026-04-21 17:13 | 49.52169 | 1.95765 | 3901 ft | 163 kts | 118° |
| 2026-04-21 17:13 | 49.51555 | 1.97186 | 3874 ft | 161 kts | 118° |
| 2026-04-21 17:14 | 49.50904 | 1.98689 | 3783 ft | 176 kts | 118° |
| 2026-04-21 17:14 | 49.50196 | 2.00325 | 3595 ft | 190 kts | 119° |
| 2026-04-21 17:14 | 49.49452 | 2.02042 | 3421 ft | 193 kts | 119° |
| 2026-04-21 17:14 | 49.48715 | 2.03735 | 3361 ft | 192 kts | 119° |
| 2026-04-21 17:15 | 49.47965 | 2.05452 | 3373 ft | 200 kts | 119° |
| 2026-04-21 17:15 | 49.47178 | 2.07253 | 3376 ft | 205 kts | 119° |
| 2026-04-21 17:15 | 49.46557 | 2.09170 | 3339 ft | 196 kts | 96° |
| 2026-04-21 17:15 | 49.46763 | 2.11152 | 3291 ft | 189 kts | 60° |
| 2026-04-21 17:16 | 49.47710 | 2.12507 | 3302 ft | 190 kts | 26° |
| 2026-04-21 17:16 | 49.49031 | 2.12720 | 3293 ft | 199 kts | 352° |
| 2026-04-21 17:16 | 49.50231 | 2.11688 | 3283 ft | 205 kts | 317° |
| 2026-04-21 17:16 | 49.50872 | 2.09693 | 3285 ft | 217 kts | 280° |
| 2026-04-21 17:17 | 49.50683 | 2.07409 | 3307 ft | 223 kts | 250° |
| 2026-04-21 17:17 | 49.50191 | 2.05142 | 3342 ft | 223 kts | 262° |
| 2026-04-21 17:17 | 49.50017 | 2.02778 | 3334 ft | 221 kts | 275° |
| 2026-04-21 17:17 | 49.50404 | 2.00570 | 3339 ft | 209 kts | 301° |
| 2026-04-21 17:18 | 49.51114 | 1.98672 | 3327 ft | 204 kts | 306° |
| 2026-04-21 17:18 | 49.51861 | 1.96814 | 3350 ft | 204 kts | 307° |
| 2026-04-21 17:18 | 49.52621 | 1.94982 | 3326 ft | 203 kts | 307° |
| 2026-04-21 17:18 | 49.53391 | 1.93161 | 3305 ft | 203 kts | 308° |
| 2026-04-21 17:19 | 49.54162 | 1.91352 | 3324 ft | 204 kts | 308° |
| 2026-04-21 17:19 | 49.54949 | 1.89518 | 3334 ft | 211 kts | 308° |
| 2026-04-21 17:19 | 49.55769 | 1.87618 | 3337 ft | 214 kts | 308° |
| 2026-04-21 17:19 | 49.56596 | 1.85709 | 3339 ft | 214 kts | 308° |
| 2026-04-21 17:20 | 49.57424 | 1.83794 | 3340 ft | 215 kts | 307° |
| 2026-04-21 17:20 | 49.58177 | 1.81800 | 3298 ft | 214 kts | 314° |
| 2026-04-21 17:20 | 49.59255 | 1.80421 | 3236 ft | 194 kts | 338° |
| 2026-04-21 17:20 | 49.60509 | 1.79899 | 3217 ft | 184 kts | 3° |
| 2026-04-21 17:21 | 49.61739 | 1.80223 | 3200 ft | 178 kts | 26° |
| 2026-04-21 17:21 | 49.62739 | 1.81292 | 3198 ft | 175 kts | 49° |
| 2026-04-21 17:21 | 49.63319 | 1.82895 | 3176 ft | 175 kts | 70° |
| 2026-04-21 17:21 | 49.63667 | 1.84694 | 3131 ft | 176 kts | 72° |
| 2026-04-21 17:22 | 49.63894 | 1.85910 | 3087 ft | 175 kts | 72° |
| 2026-04-21 17:22 | 49.64338 | 1.88294 | 2986 ft | 174 kts | 72° |
| 2026-04-21 17:22 | 49.64673 | 1.90087 | 2974 ft | 175 kts | 73° |
| 2026-04-21 17:22 | 49.64817 | 1.91948 | 2959 ft | 178 kts | 96° |
| 2026-04-21 17:23 | 49.64193 | 1.93587 | 2932 ft | 186 kts | 136° |
| 2026-04-21 17:23 | 49.63044 | 1.94602 | 2990 ft | 193 kts | 148° |
| 2026-04-21 17:23 | 49.61838 | 1.95505 | 3020 ft | 194 kts | 148° |
| 2026-04-21 17:23 | 49.60654 | 1.96407 | 3018 ft | 192 kts | 148° |
| 2026-04-21 17:24 | 49.59485 | 1.97312 | 3004 ft | 182 kts | 147° |
| 2026-04-21 17:24 | 49.58383 | 1.98163 | 2916 ft | 172 kts | 147° |
| 2026-04-21 17:24 | 49.57343 | 1.98967 | 2801 ft | 165 kts | 147° |
| 2026-04-21 17:24 | 49.56300 | 1.99777 | 2766 ft | 171 kts | 147° |
| 2026-04-21 17:25 | 49.55216 | 2.00606 | 2642 ft | 174 kts | 147° |
| 2026-04-21 17:25 | 49.54179 | 2.01394 | 2490 ft | 158 kts | 147° |
| 2026-04-21 17:25 | 49.53216 | 2.02141 | 2367 ft | 153 kts | 144° |
| 2026-04-21 17:25 | 49.52324 | 2.02933 | 2141 ft | 147 kts | 140° |
| 2026-04-21 17:26 | 49.51376 | 2.03493 | 1922 ft | 152 kts | 171° |
| 2026-04-21 17:26 | 49.50305 | 2.03428 | 2026 ft | 156 kts | 177° |
| 2026-04-21 17:26 | 49.49283 | 2.03771 | 2001 ft | 147 kts | 150° |
| 2026-04-21 17:26 | 49.48394 | 2.04515 | 1774 ft | 144 kts | 134° |
| 2026-04-21 17:27 | 49.47770 | 2.05692 | 1255 ft | 142 kts | 118° |
| 2026-04-21 17:27 | 49.47247 | 2.06966 | 844 ft | 139 kts | 115° |
| 2026-04-21 17:27 | 49.46741 | 2.08211 | 710 ft | 145 kts | 116° |
| 2026-04-21 17:27 | 49.46177 | 2.09528 | 587 ft | 146 kts | 119° |
| 2026-04-21 17:28 | 49.45636 | 2.10798 | 380 ft | 136 kts | 117° |
| 2026-04-21 17:28 | 49.45255 | 2.11719 | 363 ft | 51 kts | 124° |
| 2026-04-21 17:28 | 49.45134 | 2.12008 | 362 ft | 30 kts | 121° |